Time;durP1;ratioP1;P1;durP2;ratioP2;P2;SDS_P1;SDS_P2;PMS_P1;PMS_P2;Temp;Humidity;BMP_temperature;BMP_pressure;BME280_temperature;BME280_humidity;BME280_pressure;Samples;Min_cycle;Max_cycle;Signal;HPM_P1;HPM_P2
2023/09/01 00:00:14;;;;;;;4.87;2.00;;;16.10;99.90;;;;;;5090242;28;20430;-67
2023/09/01 00:02:40;;;;;;;8.17;2.40;;;16.20;99.90;;;;;;5090392;28;20454;-67
2023/09/01 00:05:07;;;;;;;3.47;1.90;;;16.20;99.90;;;;;;5090066;28;20477;-67
2023/09/01 00:07:32;;;;;;;4.90;1.93;;;16.20;99.90;;;;;;5090087;28;20428;-67
2023/09/01 00:09:58;;;;;;;4.40;1.73;;;16.30;99.90;;;;;;5090077;28;20922;-67
2023/09/01 00:12:27;;;;;;;6.20;2.30;;;16.30;99.90;;;;;;5090151;28;20271;-67
2023/09/01 00:14:53;;;;;;;3.87;2.13;;;16.40;99.90;;;;;;5089932;28;20476;-67
2023/09/01 00:17:19;;;;;;;7.93;1.80;;;16.40;99.90;;;;;;5090015;28;20446;-67
2023/09/01 00:19:44;;;;;;;2.30;1.50;;;16.50;99.90;;;;;;5090183;28;20192;-67
2023/09/01 00:22:10;;;;;;;2.53;1.70;;;16.60;99.90;;;;;;5090051;28;20188;-68
2023/09/01 00:24:37;;;;;;;7.00;1.53;;;16.60;99.90;;;;;;5089619;28;20271;-68
2023/09/01 00:27:02;;;;;;;5.90;1.83;;;16.60;99.90;;;;;;5088150;28;20212;-67
2023/09/01 00:29:28;;;;;;;3.80;1.53;;;16.70;99.90;;;;;;5089114;28;20882;-67
2023/09/01 00:31:54;;;;;;;4.20;1.90;;;16.70;99.90;;;;;;5089811;28;20999;-68
2023/09/01 00:34:19;;;;;;;2.70;1.80;;;16.70;99.90;;;;;;5088206;28;20918;-67
2023/09/01 00:36:49;;;;;;;5.97;2.17;;;16.80;99.90;;;;;;5088161;28;20228;-67
2023/09/01 00:39:14;;;;;;;2.20;1.80;;;16.80;99.90;;;;;;5089599;28;20199;-67
2023/09/01 00:41:40;;;;;;;3.90;1.97;;;16.80;99.90;;;;;;5089571;28;20510;-68
2023/09/01 00:44:06;;;;;;;5.00;1.80;;;16.80;99.90;;;;;;5087748;28;20292;-68
2023/09/01 00:46:32;;;;;;;3.83;1.70;;;16.80;99.90;;;;;;5089055;28;20469;-67
2023/09/01 00:48:58;;;;;;;3.40;2.03;;;16.80;99.90;;;;;;5089182;28;20177;-67
2023/09/01 00:51:28;;;;;;;3.97;1.90;;;16.80;99.90;;;;;;5089099;28;20553;-67
2023/09/01 00:53:54;;;;;;;3.17;2.00;;;16.80;99.90;;;;;;5089217;28;20411;-67
2023/09/01 00:56:19;;;;;;;2.93;1.83;;;16.90;99.90;;;;;;5089315;28;20486;-67
2023/09/01 00:58:45;;;;;;;4.73;2.00;;;16.90;99.90;;;;;;5089190;28;20862;-67
2023/09/01 01:01:11;;;;;;;3.67;1.73;;;16.90;99.90;;;;;;5087766;28;20186;-67
2023/09/01 01:03:39;;;;;;;4.53;1.90;;;16.90;99.90;;;;;;5088972;28;20189;-67
2023/09/01 01:06:29;;;;;;;3.83;1.97;;;16.90;99.90;;;;;;5089106;28;20859;-67
2023/09/01 01:09:16;;;;;;;3.43;1.83;;;16.90;99.90;;;;;;5088881;28;20765;-67
2023/09/01 01:11:56;;;;;;;6.07;1.90;;;16.90;99.90;;;;;;5089303;28;20407;-67
2023/09/01 01:14:43;;;;;;;6.30;2.20;;;16.90;99.90;;;;;;5088916;28;20418;-67
2023/09/01 01:17:09;;;;;;;6.20;2.13;;;16.80;99.90;;;;;;5089074;28;20410;-67
2023/09/01 01:19:49;;;;;;;5.23;1.90;;;16.80;99.90;;;;;;5089010;28;20454;-67
2023/09/01 01:22:43;;;;;;;3.83;2.20;;;16.80;99.90;;;;;;5089077;28;20419;-67
2023/09/01 01:25:10;;;;;;;4.93;1.53;;;16.80;99.90;;;;;;5057083;28;21144;-67
2023/09/01 01:27:41;;;;;;;4.73;2.30;;;16.80;99.90;;;;;;5088721;28;20464;-67
2023/09/01 01:30:07;;;;;;;3.40;1.97;;;16.70;99.90;;;;;;5087312;28;20427;-67
2023/09/01 01:32:34;;;;;;;7.07;2.13;;;16.80;99.90;;;;;;5088812;28;20447;-67
2023/09/01 01:35:32;;;;;;;5.17;2.47;;;16.70;99.90;;;;;;5088586;28;20446;-67
2023/09/01 01:38:23;;;;;;;2.47;1.90;;;16.70;99.90;;;;;;5043048;28;20428;-67
2023/09/01 01:40:52;;;;;;;5.40;1.97;;;16.70;99.90;;;;;;5087696;28;20568;-67
2023/09/01 01:43:22;;;;;;;2.60;1.53;;;16.70;99.90;;;;;;5088821;28;20439;-68
2023/09/01 01:45:49;;;;;;;4.73;2.00;;;16.60;99.90;;;;;;5088534;28;20442;-67
2023/09/01 01:48:14;;;;;;;3.27;1.67;;;16.60;99.90;;;;;;5087105;28;20410;-68
2023/09/01 01:50:41;;;;;;;2.83;1.90;;;16.60;99.90;;;;;;5088437;28;20780;-68
2023/09/01 01:53:07;;;;;;;1.80;1.63;;;16.70;99.90;;;;;;5088546;28;20186;-67
2023/09/01 01:55:34;;;;;;;2.87;1.40;;;16.70;99.90;;;;;;5088209;28;20473;-67
2023/09/01 01:58:00;;;;;;;3.13;1.63;;;16.80;99.90;;;;;;5087304;28;20522;-68
2023/09/01 02:00:29;;;;;;;7.43;1.90;;;16.80;99.90;;;;;;5088315;28;20913;-67
2023/09/01 02:02:54;;;;;;;4.00;1.90;;;16.90;99.90;;;;;;5088464;28;20411;-67
2023/09/01 02:05:20;;;;;;;5.67;1.60;;;16.90;99.90;;;;;;5088225;28;20497;-68
2023/09/01 02:07:46;;;;;;;4.90;1.80;;;16.90;99.90;;;;;;5086714;28;20186;-68
2023/09/01 02:10:12;;;;;;;5.90;1.47;;;17.00;99.90;;;;;;5088416;28;20769;-67
2023/09/01 02:12:37;;;;;;;3.53;1.47;;;17.10;99.90;;;;;;5088201;28;20536;-68
2023/09/01 02:15:08;;;;;;;3.93;1.33;;;17.10;99.90;;;;;;5086594;28;20213;-68
2023/09/01 02:17:35;;;;;;;1.97;1.40;;;17.20;99.90;;;;;;5088215;28;20185;-67
2023/09/01 02:20:00;;;;;;;4.60;1.07;;;17.20;99.90;;;;;;5088169;28;20415;-68
2023/09/01 02:22:26;;;;;;;5.27;1.53;;;17.30;99.90;;;;;;5088299;28;20421;-67
2023/09/01 02:24:51;;;;;;;2.50;1.00;;;17.30;99.90;;;;;;5086539;28;20314;-67
2023/09/01 02:27:17;;;;;;;4.43;1.40;;;17.30;99.90;;;;;;5088150;28;20205;-68
2023/09/01 02:29:43;;;;;;;2.37;1.17;;;17.30;99.90;;;;;;5088097;28;20659;-68
2023/09/01 02:32:08;;;;;;;1.43;1.00;;;17.30;99.90;;;;;;5086683;28;20178;-68
2023/09/01 02:34:34;;;;;;;5.77;1.50;;;17.40;99.90;;;;;;5087969;28;20206;-68
2023/09/01 02:36:59;;;;;;;3.00;1.53;;;17.40;99.90;;;;;;5087812;28;20291;-68
2023/09/01 02:39:25;;;;;;;1.73;1.40;;;17.40;99.90;;;;;;5087760;28;20193;-67
2023/09/01 02:41:50;;;;;;;3.30;1.40;;;17.40;99.90;;;;;;5088065;28;20189;-68
2023/09/01 02:44:16;;;;;;;2.53;1.23;;;17.40;99.90;;;;;;5069314;28;20213;-67
2023/09/01 02:46:42;;;;;;;8.90;1.47;;;17.40;99.90;;;;;;5088121;28;20661;-68
2023/09/01 02:49:09;;;;;;;3.90;1.40;;;17.40;99.90;;;;;;5087728;28;20185;-67
2023/09/01 02:51:34;;;;;;;3.37;1.80;;;17.40;99.90;;;;;;5088230;28;20241;-67
2023/09/01 02:54:00;;;;;;;1.87;1.10;;;17.50;99.90;;;;;;5091241;28;20416;-67
2023/09/01 02:56:25;;;;;;;3.23;1.63;;;17.50;99.90;;;;;;5091266;28;20225;-68
2023/09/01 02:58:51;;;;;;;1.83;1.23;;;17.40;99.90;;;;;;5089824;28;20189;-68
2023/09/01 03:01:18;;;;;;;1.77;1.57;;;17.40;99.90;;;;;;5091237;28;20190;-68
2023/09/01 03:03:43;;;;;;;1.90;1.37;;;17.40;99.90;;;;;;5091271;28;20261;-67
2023/09/01 03:06:09;;;;;;;3.00;1.20;;;17.40;99.90;;;;;;5091082;28;20514;-67
2023/09/01 03:08:35;;;;;;;3.20;1.20;;;17.40;99.90;;;;;;5091199;28;20181;-67
2023/09/01 03:11:03;;;;;;;2.03;1.53;;;17.40;99.90;;;;;;5089878;28;21028;-66
2023/09/01 03:13:28;;;;;;;3.77;1.70;;;17.40;99.90;;;;;;5089512;28;20504;-66
2023/09/01 03:15:57;;;;;;;3.53;1.33;;;17.40;99.90;;;;;;5090938;28;20504;-67
2023/09/01 03:18:23;;;;;;;3.70;1.20;;;17.40;99.90;;;;;;5090998;28;20547;-66
2023/09/01 03:20:50;;;;;;;1.50;1.00;;;17.40;99.90;;;;;;5090826;28;20418;-66
2023/09/01 03:23:16;;;;;;;4.30;1.33;;;17.40;99.90;;;;;;5090832;28;20446;-66
2023/09/01 03:25:42;;;;;;;1.60;1.20;;;17.40;99.90;;;;;;5090746;28;20565;-67
2023/09/01 03:28:07;;;;;;;2.90;1.20;;;17.40;99.90;;;;;;5089800;28;20245;-67
2023/09/01 03:30:33;;;;;;;3.43;1.10;;;17.40;99.90;;;;;;5091082;28;20618;-67
2023/09/01 03:32:58;;;;;;;2.70;1.43;;;17.50;99.90;;;;;;5091016;28;20190;-68
2023/09/01 03:35:24;;;;;;;6.20;1.00;;;17.50;99.90;;;;;;5090792;28;20288;-68
2023/09/01 03:37:49;;;;;;;2.50;1.10;;;17.50;99.90;;;;;;5089622;28;20616;-68
2023/09/01 03:40:16;;;;;;;2.47;0.90;;;17.50;99.90;;;;;;5089424;28;20235;-67
2023/09/01 03:42:41;;;;;;;3.33;0.90;;;17.50;99.90;;;;;;5090883;28;20200;-67
2023/09/01 03:45:07;;;;;;;2.13;1.03;;;17.60;99.90;;;;;;5090554;28;20993;-68
2023/09/01 03:47:33;;;;;;;1.07;0.77;;;17.60;99.90;;;;;;5090654;28;20189;-68
2023/09/01 03:49:58;;;;;;;2.50;1.10;;;17.70;99.90;;;;;;5090679;28;20498;-66
2023/09/01 03:52:24;;;;;;;2.17;0.77;;;17.70;99.90;;;;;;5090602;28;20553;-67
2023/09/01 03:54:50;;;;;;;3.43;1.00;;;17.70;99.90;;;;;;5090283;28;20251;-68
2023/09/01 03:57:16;;;;;;;3.27;0.80;;;17.70;99.90;;;;;;5090520;28;20191;-67
2023/09/01 03:59:42;;;;;;;1.03;0.83;;;17.70;99.90;;;;;;5090381;28;20184;-67
2023/09/01 04:02:08;;;;;;;1.53;0.77;;;17.70;99.90;;;;;;5090556;28;20554;-67
2023/09/01 04:04:34;;;;;;;1.50;0.87;;;17.70;99.90;;;;;;5089310;28;20468;-67
2023/09/01 04:06:59;;;;;;;3.27;1.10;;;17.80;99.90;;;;;;5090309;28;20182;-67
2023/09/01 04:09:25;;;;;;;2.10;1.00;;;17.80;99.90;;;;;;5090280;28;20185;-67
2023/09/01 04:11:50;;;;;;;1.40;0.60;;;17.80;99.90;;;;;;5090197;28;20193;-68
2023/09/01 04:14:16;;;;;;;1.70;0.60;;;17.80;99.90;;;;;;5089913;28;20266;-67
2023/09/01 04:16:42;;;;;;;0.90;0.60;;;17.80;99.90;;;;;;5088805;28;20719;-67
2023/09/01 04:19:07;;;;;;;1.77;0.70;;;17.80;99.90;;;;;;5088694;28;20264;-68
2023/09/01 04:21:33;;;;;;;2.23;1.70;;;17.70;99.90;;;;;;5088625;28;20194;-68
2023/09/01 04:23:58;;;;;;;2.20;0.93;;;17.70;99.90;;;;;;5088419;28;20286;-68
2023/09/01 04:26:25;;;;;;;1.60;0.70;;;17.70;99.90;;;;;;5086535;28;20309;-68
2023/09/01 04:28:50;;;;;;;1.53;0.80;;;17.70;99.90;;;;;;5088332;28;20927;-68
2023/09/01 04:31:24;;;;;;;2.07;0.97;;;17.70;99.90;;;;;;5088241;28;20422;-67
2023/09/01 04:33:50;;;;;;;3.63;0.90;;;17.70;99.90;;;;;;5088244;28;20563;-67
2023/09/01 04:36:15;;;;;;;1.00;0.70;;;17.70;99.90;;;;;;5088225;28;20434;-67
2023/09/01 04:38:41;;;;;;;3.43;0.90;;;17.70;99.90;;;;;;5087365;28;20583;-68
2023/09/01 04:41:06;;;;;;;1.10;0.83;;;17.70;99.90;;;;;;5088677;28;20200;-67
2023/09/01 04:43:32;;;;;;;1.50;0.80;;;17.70;99.90;;;;;;5088450;28;20199;-67
2023/09/01 04:45:58;;;;;;;2.20;0.70;;;17.70;99.90;;;;;;5088202;28;20211;-67
2023/09/01 04:48:25;;;;;;;1.63;0.70;;;17.70;99.90;;;;;;5088658;28;20419;-67
2023/09/01 04:50:50;;;;;;;2.30;0.83;;;17.70;99.90;;;;;;5086732;28;20975;-67
2023/09/01 04:53:17;;;;;;;0.90;0.80;;;17.70;99.90;;;;;;5087962;28;20405;-67
2023/09/01 04:55:43;;;;;;;1.80;0.80;;;17.70;99.90;;;;;;5087715;28;20221;-67
2023/09/01 04:58:08;;;;;;;1.37;0.83;;;17.70;99.90;;;;;;5087901;28;20516;-67
2023/09/01 05:00:34;;;;;;;1.57;0.90;;;17.70;99.90;;;;;;5088117;28;20711;-67
2023/09/01 05:03:03;;;;;;;1.97;0.80;;;17.70;99.90;;;;;;5087648;28;20184;-68
2023/09/01 05:05:29;;;;;;;1.43;0.90;;;17.70;99.90;;;;;;5087771;28;20476;-68
2023/09/01 05:07:56;;;;;;;0.90;0.60;;;17.70;99.90;;;;;;5088104;28;20790;-68
2023/09/01 05:10:22;;;;;;;1.20;0.80;;;17.60;99.90;;;;;;5087894;28;20178;-68
2023/09/01 05:12:48;;;;;;;1.00;0.70;;;17.70;99.90;;;;;;5087761;28;20415;-67
2023/09/01 05:15:13;;;;;;;1.37;0.93;;;17.70;99.90;;;;;;5087624;28;20436;-68
2023/09/01 05:17:39;;;;;;;3.23;0.60;;;17.60;99.90;;;;;;5086484;28;20376;-68
2023/09/01 05:20:09;;;;;;;1.37;0.73;;;17.70;99.90;;;;;;5087920;28;20189;-68
2023/09/01 05:22:35;;;;;;;0.90;0.60;;;17.70;99.90;;;;;;5086249;28;20223;-69
2023/09/01 05:25:00;;;;;;;0.90;0.53;;;17.70;99.90;;;;;;5087478;28;20852;-67
2023/09/01 05:27:26;;;;;;;2.23;0.90;;;17.70;99.90;;;;;;5087925;28;20258;-67
2023/09/01 05:29:52;;;;;;;1.10;0.70;;;17.70;99.90;;;;;;5088033;28;20188;-67
2023/09/01 05:32:21;;;;;;;1.43;0.67;;;17.70;99.90;;;;;;5087820;28;20184;-67
2023/09/01 05:34:46;;;;;;;1.20;0.73;;;17.70;99.90;;;;;;5086330;28;20212;-67
2023/09/01 05:37:12;;;;;;;1.90;0.60;;;17.70;99.90;;;;;;5087948;28;20498;-67
2023/09/01 05:39:38;;;;;;;1.33;0.70;;;17.70;99.90;;;;;;5088228;28;20178;-68
2023/09/01 05:42:04;;;;;;;1.97;0.77;;;17.70;99.90;;;;;;5088255;28;20423;-67
2023/09/01 05:44:30;;;;;;;1.20;0.80;;;17.70;99.90;;;;;;5088181;28;20475;-67
2023/09/01 05:46:56;;;;;;;1.37;0.80;;;17.60;99.90;;;;;;5088577;28;20197;-68
2023/09/01 05:49:23;;;;;;;1.00;0.83;;;17.60;99.90;;;;;;5088443;28;20443;-68
2023/09/01 05:51:49;;;;;;;1.27;0.60;;;17.60;99.90;;;;;;5088683;28;20219;-67
2023/09/01 05:54:16;;;;;;;1.03;0.60;;;17.50;99.90;;;;;;5088257;28;20443;-68
2023/09/01 05:56:41;;;;;;;1.20;0.60;;;17.50;99.90;;;;;;5088035;28;20189;-67
2023/09/01 05:59:07;;;;;;;1.23;0.93;;;17.50;99.90;;;;;;5087958;28;20423;-67
2023/09/01 06:01:35;;;;;;;1.40;0.67;;;17.50;99.90;;;;;;5087750;28;20683;-68
2023/09/01 06:04:03;;;;;;;1.10;0.93;;;17.60;99.90;;;;;;5086169;28;20207;-68
2023/09/01 06:06:33;;;;;;;1.33;0.70;;;17.60;99.90;;;;;;5087656;28;20432;-67
2023/09/01 06:08:59;;;;;;;1.00;0.70;;;17.60;99.90;;;;;;5087658;28;20413;-67
2023/09/01 06:11:25;;;;;;;1.50;1.10;;;17.60;99.90;;;;;;5087551;28;20984;-67
2023/09/01 06:13:51;;;;;;;1.37;0.73;;;17.60;99.90;;;;;;5087543;28;20777;-68
2023/09/01 06:16:17;;;;;;;2.73;1.03;;;17.50;99.90;;;;;;5087492;28;20942;-67
2023/09/01 06:18:43;;;;;;;1.10;0.60;;;17.50;99.90;;;;;;5086198;28;20957;-67
2023/09/01 06:21:10;;;;;;;1.10;0.63;;;17.40;99.90;;;;;;5087448;28;20418;-67
2023/09/01 06:23:40;;;;;;;1.67;0.77;;;17.40;99.90;;;;;;5087424;28;20194;-67
2023/09/01 06:26:06;;;;;;;2.80;0.97;;;17.40;99.90;;;;;;5087038;28;20808;-67
2023/09/01 06:28:33;;;;;;;1.00;0.70;;;17.30;99.90;;;;;;5090839;28;20423;-67
2023/09/01 06:30:59;;;;;;;2.37;0.80;;;17.30;99.90;;;;;;5090993;28;20414;-68
2023/09/01 06:33:24;;;;;;;3.43;1.00;;;17.20;99.90;;;;;;5090650;28;20503;-68
2023/09/01 06:35:50;;;;;;;2.10;1.07;;;17.10;99.90;;;;;;5090740;28;20224;-67
2023/09/01 06:38:15;;;;;;;1.37;0.80;;;17.10;99.90;;;;;;5090567;28;20216;-68
2023/09/01 06:40:41;;;;;;;4.40;0.90;;;17.00;99.90;;;;;;5090576;28;20189;-67
2023/09/01 06:43:06;;;;;;;1.10;0.80;;;16.90;99.90;;;;;;5090670;28;20224;-67
2023/09/01 06:45:32;;;;;;;1.90;0.83;;;17.00;99.90;;;;;;5090486;28;20219;-67
2023/09/01 06:47:58;;;;;;;1.20;0.83;;;16.80;99.90;;;;;;5090558;28;20190;-68
2023/09/01 06:50:24;;;;;;;1.77;0.83;;;16.90;99.90;;;;;;5090520;28;21090;-67
2023/09/01 06:52:51;;;;;;;1.03;0.90;;;16.90;99.90;;;;;;5090236;28;20258;-67
2023/09/01 06:55:17;;;;;;;1.53;1.00;;;16.80;99.90;;;;;;5090317;28;20212;-67
2023/09/01 06:57:43;;;;;;;1.20;0.90;;;16.80;99.90;;;;;;5090261;28;20411;-68
2023/09/01 07:00:09;;;;;;;1.10;0.97;;;16.90;99.90;;;;;;5090159;28;20948;-66
2023/09/01 07:02:35;;;;;;;4.70;0.60;;;16.90;99.90;;;;;;5090164;28;20428;-67
2023/09/01 07:05:02;;;;;;;1.03;0.70;;;17.00;99.90;;;;;;5089829;28;20482;-67
2023/09/01 07:07:28;;;;;;;1.33;1.10;;;17.00;99.90;;;;;;5088834;28;20779;-67
2023/09/01 07:09:54;;;;;;;2.87;0.80;;;17.00;99.90;;;;;;5088822;28;20418;-67
2023/09/01 07:12:19;;;;;;;3.13;0.90;;;17.10;99.90;;;;;;5090406;28;20178;-67
2023/09/01 07:14:45;;;;;;;3.90;1.10;;;17.00;99.90;;;;;;5090282;28;20209;-67
2023/09/01 07:17:12;;;;;;;1.93;1.03;;;17.10;99.90;;;;;;5090236;28;20266;-67
2023/09/01 07:19:37;;;;;;;2.37;0.90;;;17.00;99.90;;;;;;5088592;28;20243;-66
2023/09/01 07:22:04;;;;;;;1.00;0.80;;;17.10;99.90;;;;;;5090392;28;20466;-66
2023/09/01 07:24:31;;;;;;;3.43;1.07;;;17.10;99.90;;;;;;5090053;28;20206;-66
2023/09/01 07:26:56;;;;;;;2.30;0.93;;;17.20;99.90;;;;;;5090191;28;20870;-66
2023/09/01 07:29:22;;;;;;;1.10;0.80;;;17.20;99.90;;;;;;5088207;28;20420;-66
2023/09/01 07:31:47;;;;;;;1.23;0.80;;;17.30;99.90;;;;;;5090048;28;20188;-66
2023/09/01 07:34:13;;;;;;;1.33;0.70;;;17.40;99.90;;;;;;5089786;28;20196;-67
2023/09/01 07:36:39;;;;;;;1.30;0.80;;;17.40;99.90;;;;;;5090065;28;20689;-67
2023/09/01 07:39:04;;;;;;;2.53;0.80;;;17.40;99.90;;;;;;5088550;28;20189;-66
2023/09/01 07:41:30;;;;;;;2.20;0.83;;;17.50;99.90;;;;;;5090045;28;20679;-66
2023/09/01 07:43:55;;;;;;;1.20;0.80;;;17.50;99.90;;;;;;5089861;28;20860;-66
2023/09/01 07:46:21;;;;;;;2.60;1.00;;;17.50;99.90;;;;;;5090091;28;20202;-68
2023/09/01 07:48:47;;;;;;;1.97;0.80;;;17.50;99.90;;;;;;5089875;28;20188;-68
2023/09/01 07:51:12;;;;;;;2.40;0.80;;;17.60;99.90;;;;;;5089862;28;20223;-68
2023/09/01 07:53:38;;;;;;;1.40;0.80;;;17.70;99.90;;;;;;5089838;28;20191;-68
2023/09/01 07:56:04;;;;;;;1.20;0.90;;;17.80;99.90;;;;;;5088415;28;20496;-68
2023/09/01 07:58:30;;;;;;;5.57;0.80;;;18.00;99.90;;;;;;5089951;28;20167;-68
2023/09/01 08:00:56;;;;;;;3.47;0.70;;;18.00;99.90;;;;;;5089673;28;20426;-68
2023/09/01 08:03:22;;;;;;;1.30;0.70;;;18.10;99.90;;;;;;5088284;28;20424;-67
2023/09/01 08:05:47;;;;;;;2.40;0.93;;;18.20;99.90;;;;;;5089596;28;20267;-68
2023/09/01 08:08:13;;;;;;;1.27;0.60;;;18.20;99.90;;;;;;5089657;28;20191;-66
2023/09/01 08:10:40;;;;;;;0.90;0.80;;;18.20;99.90;;;;;;5089802;28;20236;-68
2023/09/01 08:13:05;;;;;;;1.33;0.90;;;18.20;99.90;;;;;;5089591;28;20931;-67
2023/09/01 08:15:32;;;;;;;2.43;0.80;;;18.30;99.90;;;;;;5089605;28;20456;-68
2023/09/01 08:17:58;;;;;;;1.23;0.70;;;18.40;99.90;;;;;;5089746;28;20269;-68
2023/09/01 08:20:25;;;;;;;2.80;0.70;;;18.40;99.90;;;;;;5089882;28;20507;-68
2023/09/01 08:22:51;;;;;;;1.27;0.70;;;18.50;99.90;;;;;;5090234;28;20424;-67
2023/09/01 08:25:18;;;;;;;1.20;0.83;;;18.60;99.90;;;;;;5088600;28;20570;-67
2023/09/01 08:27:44;;;;;;;1.83;1.10;;;18.80;99.90;;;;;;5090161;28;20428;-68
2023/09/01 08:30:10;;;;;;;1.50;0.80;;;18.90;99.90;;;;;;5090111;28;20408;-67
2023/09/01 08:32:38;;;;;;;1.10;0.67;;;19.10;99.90;;;;;;5090073;28;20404;-67
2023/09/01 08:35:04;;;;;;;1.60;1.00;;;19.40;99.90;;;;;;5088775;28;20436;-68
2023/09/01 08:37:30;;;;;;;2.90;0.90;;;19.40;99.90;;;;;;5089841;28;20423;-67
2023/09/01 08:39:55;;;;;;;1.93;1.00;;;19.60;99.90;;;;;;5089267;28;20551;-67
2023/09/01 08:42:22;;;;;;;1.73;0.83;;;19.70;99.90;;;;;;5089319;28;20193;-67
2023/09/01 08:44:49;;;;;;;1.93;1.00;;;19.80;99.90;;;;;;5089591;28;20791;-67
2023/09/01 08:47:22;;;;;;;2.13;1.00;;;20.00;99.90;;;;;;5089719;28;20404;-67
2023/09/01 08:49:51;;;;;;;1.30;1.20;;;20.20;99.90;;;;;;5089054;28;20421;-67
2023/09/01 08:52:19;;;;;;;1.40;0.90;;;20.20;99.90;;;;;;5089401;28;20414;-67
2023/09/01 08:54:45;;;;;;;1.20;0.80;;;20.30;99.90;;;;;;5088899;28;20587;-68
2023/09/01 08:57:11;;;;;;;1.83;1.07;;;20.50;99.90;;;;;;5088949;28;20416;-68
2023/09/01 08:59:37;;;;;;;5.20;1.20;;;20.70;99.90;;;;;;5087680;28;20793;-67
2023/09/01 09:02:07;;;;;;;2.10;1.10;;;20.70;99.90;;;;;;5088771;28;20187;-68
2023/09/01 09:04:33;;;;;;;1.70;1.07;;;20.70;99.90;;;;;;5088690;28;20476;-67
2023/09/01 09:07:16;;;;;;;7.90;1.50;;;20.60;99.90;;;;;;5088798;28;20408;-67
2023/09/01 09:09:50;;;;;;;3.90;1.23;;;20.40;99.90;;;;;;5088631;28;20444;-67
2023/09/01 09:12:16;;;;;;;2.40;0.93;;;20.20;99.90;;;;;;5088590;28;20405;-67
2023/09/01 09:14:51;;;;;;;5.03;1.47;;;20.20;99.90;;;;;;5087281;28;20444;-67
2023/09/01 09:17:19;;;;;;;2.50;1.03;;;20.30;99.90;;;;;;5088610;28;20182;-67
2023/09/01 09:19:59;;;;;;;2.50;0.80;;;20.50;99.90;;;;;;5088496;28;20425;-67
2023/09/01 09:22:25;;;;;;;2.13;0.90;;;20.80;99.90;;;;;;5088345;28;20416;-67
2023/09/01 09:24:50;;;;;;;1.83;1.00;;;20.90;99.90;;;;;;5087023;28;20476;-67
2023/09/01 09:27:17;;;;;;;4.43;1.10;;;21.30;99.90;;;;;;5087026;28;20451;-67
2023/09/01 09:29:45;;;;;;;4.00;1.50;;;21.30;99.90;;;;;;5086877;28;20331;-67
2023/09/01 09:32:17;;;;;;;3.40;1.03;;;21.30;99.90;;;;;;5088383;28;20420;-67
2023/09/01 09:34:43;;;;;;;2.53;1.30;;;21.20;99.90;;;;;;5088403;28;20508;-69
2023/09/01 09:37:18;;;;;;;2.43;2.00;;;21.10;99.90;;;;;;5086620;28;20420;-67
2023/09/01 09:39:44;;;;;;;2.87;1.53;;;21.10;99.90;;;;;;5087857;28;20412;-67
2023/09/01 09:42:09;;;;;;;2.10;1.37;;;21.80;99.90;;;;;;5087827;28;20423;-67
2023/09/01 09:44:35;;;;;;;1.10;0.90;;;22.50;99.90;;;;;;5087527;28;20226;-67
2023/09/01 09:47:12;;;;;;;2.70;1.33;;;23.30;99.90;;;;;;5087757;28;20678;-66
2023/09/01 09:49:38;;;;;;;2.70;0.90;;;23.30;99.90;;;;;;5086818;28;20858;-66
2023/09/01 09:52:07;;;;;;;5.53;1.10;;;23.00;99.90;;;;;;5088221;28;20880;-66
2023/09/01 09:54:36;;;;;;;2.80;1.20;;;23.00;99.90;;;;;;5087946;28;20888;-67
2023/09/01 09:57:12;;;;;;;2.13;1.17;;;23.20;99.90;;;;;;5088264;28;20855;-69
2023/09/01 09:59:48;;;;;;;2.53;1.20;;;23.20;99.90;;;;;;5088342;28;20526;-68
2023/09/01 10:02:29;;;;;;;3.77;1.20;;;22.90;99.90;;;;;;5090119;28;20867;-68
2023/09/01 10:04:57;;;;;;;2.90;1.03;;;22.90;99.90;;;;;;5092015;28;21060;-67
2023/09/01 10:07:23;;;;;;;1.70;1.07;;;22.70;99.90;;;;;;5089841;28;20509;-68
2023/09/01 10:09:49;;;;;;;2.13;0.93;;;22.60;99.90;;;;;;5091199;28;20414;-68
2023/09/01 10:12:15;;;;;;;3.70;1.20;;;22.50;99.90;;;;;;5091511;28;20479;-67
2023/09/01 10:14:43;;;;;;;2.87;0.97;;;22.50;99.90;;;;;;5089295;28;20209;-67
2023/09/01 10:17:11;;;;;;;2.03;1.20;;;22.40;99.90;;;;;;5091068;28;20424;-67
2023/09/01 10:19:37;;;;;;;2.13;1.20;;;22.30;99.90;;;;;;5091514;28;20418;-67
2023/09/01 10:22:03;;;;;;;2.53;1.30;;;22.20;99.90;;;;;;5090978;28;21072;-68
2023/09/01 10:24:29;;;;;;;1.80;1.00;;;22.00;99.90;;;;;;5090873;28;20212;-68
2023/09/01 10:27:08;;;;;;;2.27;1.30;;;22.00;99.90;;;;;;5091054;28;20422;-68
2023/09/01 10:29:34;;;;;;;1.87;1.30;;;22.00;99.90;;;;;;5090763;28;20222;-68
2023/09/01 10:32:17;;;;;;;3.70;1.27;;;21.80;99.90;;;;;;5090803;28;20421;-67
2023/09/01 10:34:53;;;;;;;4.30;1.37;;;21.70;99.90;;;;;;5089008;28;20444;-67
2023/09/01 10:37:32;;;;;;;1.97;1.10;;;21.70;99.90;;;;;;5090782;28;20496;-67
2023/09/01 10:39:58;;;;;;;2.33;1.57;;;21.80;99.90;;;;;;5090668;28;20441;-68
2023/09/01 10:42:40;;;;;;;5.43;1.33;;;21.80;99.90;;;;;;5090586;28;20941;-67
2023/09/01 10:45:06;;;;;;;2.40;1.00;;;21.90;99.90;;;;;;5090456;28;20594;-67
2023/09/01 10:47:31;;;;;;;2.13;1.60;;;21.90;99.90;;;;;;5090261;28;20425;-67
2023/09/01 10:49:57;;;;;;;2.60;1.10;;;21.90;99.90;;;;;;5090328;28;20185;-67
2023/09/01 10:52:23;;;;;;;2.10;1.10;;;21.90;99.90;;;;;;5090238;28;20219;-68
2023/09/01 10:55:08;;;;;;;5.03;1.60;;;22.00;99.90;;;;;;5089511;28;20471;-68
2023/09/01 10:57:52;;;;;;;2.90;1.20;;;22.00;99.90;;;;;;5089016;28;21028;-67
2023/09/01 11:00:31;;;;;;;1.93;1.30;;;22.00;99.90;;;;;;5089088;28;20950;-67
2023/09/01 11:03:25;;;;;;;1.83;1.30;;;21.90;99.90;;;;;;5088969;28;20472;-67
2023/09/01 11:05:55;;;;;;;1.83;1.20;;;21.90;99.90;;;;;;5087292;28;20515;-67
2023/09/01 11:08:21;;;;;;;2.07;1.13;;;21.90;99.90;;;;;;5088888;28;20426;-68
2023/09/01 11:10:46;;;;;;;1.53;1.20;;;21.90;99.90;;;;;;5088826;28;20420;-66
2023/09/01 11:13:17;;;;;;;1.90;1.40;;;22.10;99.90;;;;;;5088687;28;20181;-68
2023/09/01 11:15:50;;;;;;;2.43;1.30;;;22.30;99.90;;;;;;5088789;28;20195;-67
2023/09/01 11:18:21;;;;;;;2.37;1.27;;;22.60;99.90;;;;;;5088585;28;21007;-67
2023/09/01 11:20:47;;;;;;;1.53;1.10;;;22.80;99.90;;;;;;5088696;28;20471;-67
2023/09/01 11:23:18;;;;;;;1.27;1.07;;;22.80;99.90;;;;;;5088587;28;20426;-67
2023/09/01 11:25:43;;;;;;;2.60;1.20;;;22.80;99.90;;;;;;5086916;28;20588;-67
2023/09/01 11:28:13;;;;;;;5.83;1.30;;;22.80;99.90;;;;;;5088456;28;21355;-67
2023/09/01 11:30:51;;;;;;;1.57;1.10;;;22.80;99.90;;;;;;5088807;28;20233;-67
2023/09/01 11:33:17;;;;;;;4.60;1.20;;;23.10;99.90;;;;;;5087058;28;20462;-67
2023/09/01 11:35:42;;;;;;;2.27;1.30;;;23.20;99.90;;;;;;5088288;28;20446;-68
2023/09/01 11:38:19;;;;;;;2.47;1.20;;;23.40;99.90;;;;;;5088318;28;20267;-68
2023/09/01 11:40:47;;;;;;;2.40;1.00;;;23.90;99.90;;;;;;5088506;28;20184;-69
2023/09/01 11:43:13;;;;;;;2.40;1.40;;;23.90;99.90;;;;;;5086873;28;20790;-68
2023/09/01 11:45:49;;;;;;;2.37;1.10;;;24.10;99.90;;;;;;5088197;28;20523;-69
2023/09/01 11:48:24;;;;;;;2.70;1.00;;;24.50;99.90;;;;;;5088084;28;20188;-68
2023/09/01 11:50:53;;;;;;;1.80;1.23;;;24.90;99.90;;;;;;5087899;28;20420;-68
2023/09/01 11:53:29;;;;;;;1.37;1.10;;;25.70;99.90;;;;;;5088181;28;20767;-68
2023/09/01 11:56:01;;;;;;;1.67;1.30;;;25.20;99.90;;;;;;5050445;28;1095459;-69
2023/09/01 11:58:47;;;;;;;4.90;1.03;;;24.90;99.90;;;;;;5089151;28;20188;-69
2023/09/01 12:01:16;;;;;;;1.57;1.10;;;24.60;99.90;;;;;;5089019;28;20446;-69
2023/09/01 12:03:53;;;;;;;1.57;0.80;;;24.30;99.90;;;;;;5089129;28;20500;-69
2023/09/01 12:06:26;;;;;;;1.20;0.90;;;23.90;99.90;;;;;;5088953;28;20444;-69
2023/09/01 12:08:53;;;;;;;1.30;1.00;;;23.70;99.90;;;;;;5089351;28;20416;-70
2023/09/01 12:11:19;;;;;;;2.40;1.20;;;23.40;99.90;;;;;;5088826;28;20435;-70
2023/09/01 12:13:46;;;;;;;1.63;1.13;;;23.20;99.90;;;;;;5089032;28;20443;-69
2023/09/01 12:16:20;;;;;;;2.07;1.30;;;23.00;99.90;;;;;;5088948;28;20441;-70
2023/09/01 12:18:46;;;;;;;2.03;1.40;;;22.90;99.90;;;;;;5089091;28;20928;-69
2023/09/01 12:21:12;;;;;;;1.53;1.00;;;22.80;99.90;;;;;;5089184;28;20423;-69
2023/09/01 12:23:38;;;;;;;2.20;1.10;;;22.80;99.90;;;;;;5087603;28;20545;-69
2023/09/01 12:26:04;;;;;;;2.17;1.00;;;22.80;99.90;;;;;;5088360;28;20588;-69
2023/09/01 12:28:32;;;;;;;2.00;1.17;;;23.00;99.90;;;;;;5087529;28;20420;-69
2023/09/01 12:30:59;;;;;;;5.73;1.40;;;23.10;99.90;;;;;;5089271;28;20419;-69
2023/09/01 12:33:25;;;;;;;2.03;0.80;;;23.20;99.90;;;;;;5089328;28;20423;-69
2023/09/01 12:35:51;;;;;;;1.53;1.00;;;23.80;99.90;;;;;;5088924;28;20527;-70
2023/09/01 12:38:18;;;;;;;2.17;1.00;;;24.00;99.90;;;;;;5089131;28;20189;-69
2023/09/01 12:40:44;;;;;;;1.10;0.90;;;24.10;99.90;;;;;;5087498;28;20443;-69
2023/09/01 12:43:10;;;;;;;1.17;0.90;;;24.00;99.90;;;;;;5088601;28;20419;-69
2023/09/01 12:45:35;;;;;;;2.50;1.13;;;23.90;99.90;;;;;;5088764;28;20229;-69
2023/09/01 12:48:01;;;;;;;1.80;0.80;;;24.00;99.90;;;;;;5087750;28;20284;-69
2023/09/01 12:50:28;;;;;;;1.50;1.00;;;23.80;99.90;;;;;;5089044;28;20182;-69